Sitka, AK

2:03 PM AKST on December 02, 2016 (GMT -0900)
ASOS_HFM | | Change Station
Active Advisory: High Wind Warning

Elev 65 ft 57.07 °N, 135.35 °W | Updated 33 minutes ago

Rain
Rain
46 °F
Feels Like 36 °F
N
31
Wind Variable Wind from SSW
Gusts 0.0 mph

Today
High -- | Low -- °F
--% Chance of Precip.
Yesterday
High -- | Low -- °F
Precip. -- in
Pressure 29.09 in
Visibility 1.5 miles
Clouds Few 1400 ft
Mostly Cloudy 2400 ft
Overcast 3300 ft
Windchill 36 °F
Dew Point 43 °F
Humidity 87%
Rainfall in
Snow Depth Not available.
8:17 AM 3:24 PM
Waxing Crescent, 11% visible
METAR PASI 022253Z 21032G38KT 1 1/2SM RA FEW014 BKN024 OVC033 08/06 A2909 RMK AO2 PK WND 22040/2157 SLP851 P0005 T00830056
Pressure 29.09 in
Visibility 1.5 miles
Clouds Few 1400 ft
Mostly Cloudy 2400 ft
Overcast 3300 ft
Windchill 36 °F
Dew Point 43 °F
Humidity 87%
Rainfall in
Snow Depth Not available.
8:17 AM 3:24 PM
Waxing Crescent, 11% visible
METAR PASI 022253Z 21032G38KT 1 1/2SM RA FEW014 BKN024 OVC033 08/06 A2909 RMK AO2 PK WND 22040/2157 SLP851 P0005 T00830056

10-Day Weather Forecast

Almanac

Astronomy

Dec. 02, 2016 Rise Set
Actual Time
Civil Twilight
Nautical Twilight
Astronomical Twilight
Moon
Length of Visible Light
Length of Day
Tomorrow will be .
, % of the Moon is Illuminated

Today's Extremes

State Highs State Lows

Community

WunderPhotos

Upload Photos

1,955,375 photos uploaded!

WunderBlog® & News

Nearby

Air Quality

  Air Quality AQ Index Pollutant
Not available.

Snow Depth

Station Depth Elevation

Earthquake Activity

City Distance Mag. Time & Date
Minimum magnitude displayed is 2.5.

Coastal Water Temperatures

Place Temperature

Stations

Nearby Weather Stations

Station Location Temp. Windchill Dew Point Humidity Wind Precip. Elev Updated Type
                   

Watches & Warnings

High Wind Warning
Issued: 8:52 AM AKST Dec. 2, 2016 – National Weather Service

... High Wind Warning remains in effect until 6 PM akst this
evening...

* winds... southwest wind gusts of 60 mph this morning before
diminishing Friday evening. Peak wind gusts of 48 mph have been
measured at the Sitka Airport so far.

* Impacts... loose objects may be blown around. Downed trees and
limbs may result in power outages and blocked roadways.

Precautionary/preparedness actions...

A High Wind Warning means a hazardous high wind event is expected
or occurring. Sustained wind speeds of at least 40 mph or gusts
of 58 mph or more can lead to property damage.

This statement will be updated at 3 PM akst today or sooner if
conditions warrant.